Home   Weather   Northern Ireland   Past weeks
Flag for United Kingdom

Past Weather in Northern Ireland, Northern Ireland, United Kingdom — August 2022

Currently: 57 °F. Passing clouds. (Weather station: Belfast / Aldergrove Airport, United Kingdom). See more current weather

August 2022 Weather in Northern Ireland — Graph

°F

High & Low Weather Summary for August 2022

 TemperatureHumidityPressure
High79 °F (Aug 11, 3:20 pm)100% (Aug 1, 6:50 pm)30.42 "Hg (Aug 1, 6:50 pm)
Low39 °F (Aug 27, 4:50 am)32% (Aug 10, 3:20 pm)29.62 "Hg (Aug 15, 4:20 am)
Average60 °F78%30.05 "Hg
* Reported Aug 1 12:20 am — Aug 31 11:20 pm, Northern Ireland. Weather by CustomWeather, © 2024

Note: Actual official high and low records may vary slightly from our data, if they occured in-between our weather recording intervals... More about our weather records

Northern Ireland Weather History for August 1, 2022

Scroll right to see more
 ConditionsComfort  
Time TempWeatherWind HumidityBarometerVisibility
12:20 am
Mon, Aug 1
46 °FCool.5 mph87%30.09 "HgN/A
1:50 am45 °FPassing clouds.3 mph93%30.09 "HgN/A
2:20 am46 °FPassing clouds.2 mph87%30.09 "HgN/A
2:50 am45 °FPassing clouds.1 mph93%30.09 "HgN/A
3:20 am45 °FPassing clouds.3 mph87%30.07 "HgN/A
3:50 am45 °FPassing clouds.2 mph93%30.07 "HgN/A
4:20 am48 °FOvercast.2 mph94%30.07 "HgN/A
4:50 am46 °FPassing clouds.2 mph87%30.07 "HgN/A
5:20 am46 °FPassing clouds.2 mph93%30.07 "HgN/A
5:50 am48 °FOvercast.3 mph94%30.07 "HgN/A
6:20 am50 °FOvercast.3 mph94%30.07 "HgN/A
6:50 am50 °FOvercast.3 mph94%30.07 "HgN/A
7:50 am54 °FOvercast.2 mph94%30.04 "HgN/A
8:50 am57 °FOvercast.2 mph88%30.04 "HgN/A
9:20 am61 °FOvercast.5 mph72%30.04 "HgN/A
9:50 am61 °FPartly sunny.5 mph68%30.01 "HgN/A
10:20 am63 °FScattered clouds.5 mph59%30.01 "HgN/A
10:50 am64 °FScattered clouds.5 mph56%30.01 "HgN/A
11:20 am64 °FPartly sunny.7 mph60%30.01 "HgN/A
11:50 am64 °FPartly sunny.10 mph60%29.98 "HgN/A
12:20 pm66 °FPartly sunny.9 mph60%29.98 "HgN/A
12:50 pm66 °FScattered clouds.10 mph60%29.95 "HgN/A
1:20 pm66 °FMostly cloudy.10 mph60%29.95 "HgN/A
1:50 pm66 °FPartly sunny.10 mph64%29.92 "HgN/A
2:20 pm66 °FMostly cloudy.12 mph64%29.92 "HgN/A
3:20 pm64 °FPartly sunny.10 mph73%29.89 "HgN/A
3:50 pm63 °FLight rain. Scattered clouds.12 mph83%29.86 "HgN/A
4:20 pm64 °FLight rain. Broken clouds.9 mph83%29.86 "HgN/A
4:50 pm63 °FLight rain. Passing clouds.10 mph88%29.86 "Hg5 mi
5:20 pm63 °FRain. Scattered clouds.10 mph94%29.83 "Hg4 mi
6:50 pm63 °FRain. Scattered clouds.13 mph100%29.77 "Hg3 mi
7:20 pm64 °FLight rain. Fog.12 mph94%29.77 "Hg2 mi
7:50 pm64 °FPartly sunny.10 mph94%29.74 "HgN/A
8:50 pm66 °FBroken clouds.13 mph94%29.74 "HgN/A
9:20 pm66 °FDrizzle. Mostly cloudy.10 mph94%29.74 "Hg4 mi
9:50 pm66 °FDrizzle. Mostly cloudy.12 mph94%29.74 "Hg3 mi
10:20 pm66 °FPassing clouds.12 mph94%29.71 "HgN/A
10:50 pm66 °FPassing clouds.13 mph94%29.74 "HgN/A
11:20 pm66 °FLight rain. Passing clouds.12 mph94%29.74 "HgN/A
11:50 pm64 °FPassing clouds.17 mph94%29.71 "HgN/A
Weather by CustomWeather, © 2024

See weather overview